Hoppa till innehåll

METAR väder och rapporter - ESKN

Nedan listas information från vald flygplats. Andra METARs finns längre ned på sidan. Kontakta oss om någon saknas eller skriv in egen ICAO-kod.

Coded METAR: 2024/02/26 16:20 ESKN 261620Z 00000KT 9999 FEW005 BKN021 03/02 Q1012

Weather Report @ ESKN

Issued: 26th Feb 2024 at 17:20 CET

Wind: calm 0 knots (0 mph, 0 kph, 0 mps, Force 0)
Visibility: 10km or more
Cloud: a few clouds at 500 feet
Cloud: broken at 2100 feet
Temperature: 37F / 3C
Dewpoint: 36F / 2C
Humidity: 93%
Pressure: 1012 hPa

Coded TAF: 2024/02/26 16:29 TAF AMD ESKN 261622Z 2616/2715 08005KT 9999 FEW005 BECMG 2617/2619 2000 BR BKN003 PROB40 2619/2709 0500 FG PROB40 2709/2712 BKN008

Weather Forecast @ ESKN

Issued: 26th Feb 2024 at 17:29 CET

Valid : 1st Jan 01:00 until 01:00 CET

01:00 CET
DATA TOO OLD TO BE USEFUL !

Internet delivery of weather data is not secure or reliable enough for operational purposes.

NEVER RELY ON THE OUTPUT OF THIS SCRIPT TO MAKE DECISIONS ABOUT ANYTHING IN WHICH THE WEATHER FORECAST AND ITS INTERPRETATION COULD BE AN ISSUE OF SAFETY.

Andra intressanta METARs

Klicka på önskad rubrik nedan för att visa nuvarande väder för den platsen.

Avstånd från stationen: NO 27kmESGG - Göteborg (Landvetter)
Uppdaterad: 2024-02-26 17:20
 Vind från N
Vind: N 11 km/h
Temperatur: 1°C
Vindavkylning: -2°C
Daggpunkt: 1°C
Luftfuktighet: 100%
Barometer: 1013 hPa
Moln: Genommulet
Sikt: 10 km
Molninformation: Genommulet 91 m
2024/02/26 16:20 ESGG 261620Z 36006KT 9999 OVC003 01/01 Q1013
Genommulet
Genommulet
  Visa detaljer för Göteborg (Landvetter)
Avstånd från stationen: N 28kmESGP - Göteborg (Säve)
Uppdaterad: 2024-02-26 17:20
 Vind från varierande
Vind: varierande 6 km/h
Temperatur: 3°C
Daggpunkt: 1°C
Luftfuktighet: 87%
Barometer: 1014 hPa
Moln: Genommulet
Sikt: 10 km
Molninformation: Övervägande molnigt 213 m
Genommulet 305 m
2024/02/26 16:20 ESGP 261620Z VRB03KT 9999 BKN007 OVC010 03/01 Q1014
Genommulet
Genommulet
  Visa detaljer för Göteborg (Säve)
Avstånd från stationen: NO 419kmESSA - Stockholm (Arlanda)
Uppdaterad: 2024-02-26 17:20
 Vind från ONO
Vind: ONO 7 km/h
Temperatur: 3°C
Vindavkylning: 1°C
Daggpunkt: 2°C
Luftfuktighet: 93%
Barometer: 1012 hPa
Moln: Övervägande molnigt
Sikt: 10 km
Molninformation: Övervägande molnigt 122 m
2024/02/26 16:20 ESSA 261620Z 07004KT 030V100 9999 7000NE BKN004 03/02 Q1012 BECMG 4000 BR BKN002
Övervägande molnigt
Övervägande molnigt
  Visa detaljer för Stockholm (Arlanda)
Avstånd från stationen: ONO 404kmESSB - Stockholm (Bromma)
Uppdaterad: 2024-02-26 17:20
 Vind från ONO
Vind: ONO 7 km/h
Temperatur: 3°C
Vindavkylning: 1°C
Daggpunkt: 3°C
Luftfuktighet: 100%
Barometer: 1012 hPa
Summering: Dimmigt
Moln: Genommulet
Sikt: 3 km
Molninformation: Genommulet 91 m
2024/02/26 16:20 ESSB 261620Z 07004KT 3200 BR OVC003 03/03 Q1012
Dimmigt, Genommulet
Dimmigt
Genommulet
  Visa detaljer för Stockholm (Bromma)
Avstånd från stationen: ONO 323kmESKN - Stockholm (Skavsta)
Uppdaterad: 2024-02-26 17:20
 Vind från calm
Vind: Vindstilla
Temperatur: 3°C
Daggpunkt: 2°C
Luftfuktighet: 93%
Barometer: 1012 hPa
Moln: Övervägande molnigt
Sikt: 10 km
Molninformation: Några få moln 152 m
Övervägande molnigt 640 m
2024/02/26 16:20 ESKN 261620Z 00000KT 9999 FEW005 BKN021 03/02 Q1012
Övervägande molnigt
Övervägande molnigt
  Visa detaljer för Stockholm (Skavsta)
Avstånd från stationen: SSO 238kmESMS - Malmö flygplats (Sturup)
Uppdaterad: 2024-02-26 17:20
 Vind från NNV
Vind: NNV 7 km/h
Temperatur: 6°C
Vindavkylning: 4°C
Daggpunkt: 2°C
Luftfuktighet: 76%
Barometer: 1011 hPa
Summering: Klart
Sikt: mer än 10 km
2024/02/26 16:20 ESMS 261620Z 34004KT CAVOK 06/02 Q1011
Klart
Klart
  Visa detaljer för Malmö flygplats (Sturup)
Avstånd från stationen: O 382kmESSV - Visby flygplats
Uppdaterad: 2024-02-26 17:20
 Vind från calm
Vind: Vindstilla
Temperatur: 3°C
Daggpunkt: 3°C
Luftfuktighet: 100%
Barometer: 1012 hPa
Summering: Dimmigt
Moln: Genommulet
Sikt: 3 km
Molninformation: Genommulet 91 m
2024/02/26 16:20 ESSV 261620Z 00000KT 3100 BR OVC003 03/03 Q1012
Dimmigt, Genommulet
Dimmigt
Genommulet
  Visa detaljer för Visby flygplats
Avstånd från stationen: NNO 92kmESGT - Trollhättan
Uppdaterad: 2024-02-26 17:20
 Vind från NNO
Vind: NNO 7 km/h
Temperatur: 2°C
Vindavkylning: 0°C
Daggpunkt: 1°C
Luftfuktighet: 93%
Barometer: 1014 hPa
Moln: Genommulet
Sikt: 10 km
Molninformation: Genommulet 183 m
2024/02/26 16:20 ESGT 261620Z 03004KT 9999 OVC006 02/01 Q1014
Genommulet
Genommulet
  Visa detaljer för Trollhättan
Avstånd från stationen: ONO 129kmESGJ - Jönköpings flygplats
Uppdaterad: 2024-02-26 17:20
 Vind från ONO
Vind: ONO 4 km/h
Temperatur: 2°C
Daggpunkt: 2°C
Luftfuktighet: 100%
Barometer: 1012 hPa
Moln: Övervägande molnigt
Sikt: 7 km
Molninformation: Övervägande molnigt 152 m
2024/02/26 16:20 ESGJ 261620Z 06002KT 7000 BKN005 02/02 Q1012
Övervägande molnigt
Övervägande molnigt
  Visa detaljer för Jönköpings flygplats
Avstånd från stationen: NNO 229kmESOK - Karlstad
Uppdaterad: 2024-02-26 17:20
 Vind från N
Vind: N 15 km/h
Temperatur: 1°C
Vindavkylning: -3°C
Daggpunkt: 0°C
Luftfuktighet: 93%
Barometer: 1013 hPa
Moln: Genommulet
Sikt: 10 km
Molninformation: Genommulet 152 m
2024/02/26 16:20 ESOK 261620Z AUTO 35008KT 9999 OVC005/// 01/00 Q1013
Genommulet
Genommulet
  Visa detaljer för Karlstad
Avstånd från stationen: N 643kmESNZ - Östersund (Frösön)
Uppdaterad: 2024-02-26 17:20
 Vind från VNV
Vind: VNV 19 km/h
Temperatur: 1°C
Vindavkylning: -4°C
Daggpunkt: -2°C
Luftfuktighet: 81%
Barometer: 1011 hPa
Moln: Delvis molnigt
Sikt: 10 km
Molninformation: Delvis molnigt 975 m
2024/02/26 16:20 ESNZ 261620Z 30010KT 9999 SCT032 01/M02 Q1011
Delvis molnigt
Delvis molnigt
  Visa detaljer för Östersund (Frösön)
Avstånd från stationen: SSO 216kmEKCH - Köpenhamn (Kastrup)
Uppdaterad: 2024-02-26 17:20
 Vind från N
Vind: N 13 km/h
Temperatur: 6°C
Vindavkylning: 3°C
Daggpunkt: 3°C
Luftfuktighet: 81%
Barometer: 1012 hPa
Moln: Delvis molnigt
Sikt: 10 km
Molninformation: Delvis molnigt 1798 m
2024/02/26 16:20 EKCH 261620Z AUTO 35007KT 9999 SCT059/// 06/03 Q1012 NOSIG
Delvis molnigt
Delvis molnigt
  Visa detaljer för Köpenhamn (Kastrup)
Avstånd från stationen: SV 263kmEKBI - Billund Airport
Uppdaterad: 2024-02-26 17:20
 Vind från N
Vind: N 13 km/h
Temperatur: 5°C
Vindavkylning: 2°C
Daggpunkt: 2°C
Luftfuktighet: 81%
Barometer: 1014 hPa
Moln: Övervägande molnigt
Sikt: 10 km
Molninformation: Övervägande molnigt 1097 m
2024/02/26 16:20 EKBI 261620Z AUTO 35007KT 310V010 9999 BKN036/// 05/02 Q1014
Övervägande molnigt
Övervägande molnigt
  Visa detaljer för Billund Airport
Avstånd från stationen: N 302kmENGM - Oslo (Gardermoen)
Uppdaterad: 2024-02-26 17:20
 Vind från VNV
Vind: VNV 4 km/h
Temperatur: -1°C
Daggpunkt: -2°C
Luftfuktighet: 93%
Barometer: 1014 hPa
Moln: Några få moln
Sikt: 10 km
Molninformation: Några få moln 396 m
2024/02/26 16:20 ENGM 261620Z 30002KT 9999 FEW013 M01/M02 Q1014 NOSIG
Några få moln
Några få moln
  Visa detaljer för Oslo (Gardermoen)
Avstånd från stationen: NO 540kmEFMA - Mariehamn / Åland
Uppdaterad: 2024-02-26 17:20
 Vind från varierande
Vind: varierande 2 km/h
Temperatur: 0°C
Daggpunkt: 0°C
Luftfuktighet: 100%
Barometer: 1013 hPa
Summering: Dimma
Moln: Genommulet
Sikt: 0 km
Molninformation: Genommulet 61 m
2024/02/26 16:20 EFMA 261620Z AUTO VRB01KT 0450 R21/0450 FG VV002 00/00 Q1013
Dimma, Genommulet
Dimma
Genommulet
  Visa detaljer för Mariehamn / Åland
Avstånd från stationen: S 558kmEDDT - Berlin (Tegel), Germany
Uppdaterad: 2020-11-09 07:50
Ej aktuell
 Vind från O
Vind: O 11 km/h
Temperatur: 6°C
Vindavkylning: 4°C
Daggpunkt: 5°C
Luftfuktighet: 93%
Barometer: 1027 hPa
Summering: Dimmigt
Moln: Genommulet
Sikt: 3 km
Molninformation: Genommulet 91 m
2020/11/09 06:50 EDDT 090650Z 09006KT 050V120 3000 BR OVC003 06/05 Q1027
Dimmigt, Genommulet
Dimmigt
Genommulet
  Visa detaljer för Berlin (Tegel), Germany
Avstånd från stationen: SV 737kmEHAM - Amsterdam (Schiphol)
Uppdaterad: 2024-02-26 17:25
 Vind från NO
Vind: NO 31 km/h
Temperatur: 6°C
Vindavkylning: 1°C
Daggpunkt: 3°C
Luftfuktighet: 81%
Barometer: 1010 hPa
Moln: Delvis molnigt
Sikt: 10 km
Molninformation: Delvis molnigt 488 m
2024/02/26 16:25 EHAM 261625Z 04017KT 010V070 9999 SCT016 06/03 Q1010 NOSIG
Delvis molnigt
Delvis molnigt
  Visa detaljer för Amsterdam (Schiphol)
Avstånd från stationen: ONO 808kmEFHK - Helsingfors (Vantaa)
Uppdaterad: 2024-02-26 17:20
 Vind från N
Vind: N 6 km/h
Temperatur: 1°C
Daggpunkt: 1°C
Luftfuktighet: 100%
Barometer: 1011 hPa
Summering: Lätt duggregn, Dimmigt
Moln: Genommulet
Sikt: 1 km
Molninformation: Genommulet 61 m
2024/02/26 16:20 EFHK 261620Z 01003KT 1200 R04L/P2000N R15/P2000N R22L/P2000N R22R/P2000N -DZ BR OVC002 01/01 Q1011 NOSIG
Lätt duggregn, Dimmigt, Genommulet
Lätt duggregn
Dimmigt
Genommulet
  Visa detaljer för Helsingfors (Vantaa)
Avstånd från stationen: SSV 537kmEDDW - Bremen
Uppdaterad: 2024-02-26 17:20
 Vind från NNO
Vind: NNO 22 km/h
Temperatur: 6°C
Vindavkylning: 2°C
Daggpunkt: 3°C
Luftfuktighet: 81%
Barometer: 1010 hPa
Summering: Klart
Sikt: mer än 10 km
2024/02/26 16:20 EDDW 261620Z AUTO 03012KT CAVOK 06/03 Q1010 NOSIG
Klart
Klart
  Visa detaljer för Bremen
Avstånd från stationen: SSV 861kmEDDF - Frankfurt am Main
Uppdaterad: 2024-02-26 17:20
 Vind från NNO
Vind: NNO 15 km/h
Temperatur: 10°C
Vindavkylning: 8°C
Daggpunkt: 6°C
Luftfuktighet: 76%
Barometer: 1003 hPa
Summering: Klart
Sikt: mer än 10 km
2024/02/26 16:20 EDDF 261620Z AUTO 02008KT CAVOK 10/06 Q1003 NOSIG
Klart
Klart
  Visa detaljer för Frankfurt am Main
Avstånd från stationen: SV 880kmEBBR - Bryssel international
Uppdaterad: 2024-02-26 17:20
 Vind från NO
Vind: NO 28 km/h
Temperatur: 5°C
Vindavkylning: 1°C
Daggpunkt: 4°C
Luftfuktighet: 93%
Barometer: 1006 hPa
Summering: Lätt regn
Moln: Övervägande molnigt
Sikt: 10 km
Molninformation: Några få moln 244 m
Övervägande molnigt 305 m
2024/02/26 16:20 EBBR 261620Z 04015KT 9999 -RA FEW008 BKN010 05/04 Q1006 NOSIG
Lätt regn, Övervägande molnigt
Lätt regn
Övervägande molnigt
  Visa detaljer för Bryssel international
Avstånd från stationen: SV 738kmEHAM - Amsterdam (Schiphol)
Uppdaterad: 2024-02-26 17:25
 Vind från NO
Vind: NO 31 km/h
Temperatur: 6°C
Vindavkylning: 1°C
Daggpunkt: 3°C
Luftfuktighet: 81%
Barometer: 1010 hPa
Moln: Delvis molnigt
Sikt: 10 km
Molninformation: Delvis molnigt 488 m
2024/02/26 16:25 EHAM 261625Z 04017KT 010V070 9999 SCT016 06/03 Q1010 NOSIG
Delvis molnigt
Delvis molnigt
  Visa detaljer för Amsterdam (Schiphol)
Avstånd från stationen: SV 1044kmEGLL - London (Heathrow)
Uppdaterad: 2024-02-26 17:20
 Vind från N
Vind: N 20 km/h
Vindby: 39 km/h
Temperatur: 8°C
Vindavkylning: 4°C
Daggpunkt: 0°C
Luftfuktighet: 57%
Barometer: 1014 hPa
Moln: Delvis molnigt
Sikt: 10 km
Molninformation: Delvis molnigt 1158 m
2024/02/26 16:20 EGLL 261620Z AUTO 01011G21KT 340V050 9999 SCT038 08/00 Q1014
Delvis molnigt
Delvis molnigt
  Visa detaljer för London (Heathrow)
Avstånd från stationen: SV 1132kmLFPG - Paris (Charles de Gaulle)
Uppdaterad: 2024-02-26 17:30
 Vind från NNO
Vind: NNO 46 km/h
Temperatur: 6°C
Vindavkylning: 1°C
Daggpunkt: 5°C
Luftfuktighet: 93%
Barometer: 1002 hPa
Summering: Lätt regn
Moln: Genommulet
Sikt: 10 km
Molninformation: Genommulet 274 m
2024/02/26 16:30 LFPG 261630Z 02025KT 010V070 9999 -RA OVC009 06/05 Q1002 NOSIG
Lätt regn, Genommulet
Lätt regn
Genommulet
  Visa detaljer för Paris (Charles de Gaulle)
Avstånd från stationen: SSV 1142kmLSZH - Zürich Airport
Uppdaterad: 2024-02-26 17:20
 Vind från NO
Vind: NO 9 km/h
Temperatur: 10°C
Vindavkylning: 9°C
Daggpunkt: 1°C
Luftfuktighet: 54%
Barometer: 1000 hPa
Moln: Delvis molnigt
Sikt: 10 km
Molninformation: Några få moln 1676 m
Delvis molnigt 2286 m
2024/02/26 16:20 LSZH 261620Z 04005KT 9999 FEW055 SCT075 10/01 Q1000 NOSIG
Delvis molnigt
Delvis molnigt
  Visa detaljer för Zürich Airport
Avstånd från stationen: S 1749kmLIRF - Rome Airport (Fiumicino - Leonardo da Vinci)
Uppdaterad: 2024-02-26 17:20
 Vind från SO
Vind: SO 33 km/h
Temperatur: 11°C
Daggpunkt: 8°C
Luftfuktighet: 82%
Barometer: 1005 hPa
Summering: Lätt regn
Moln: Övervägande molnigt
Sikt: 6 km
Molninformation: Delvis molnigt 457 m
Övervägande molnigt 762 m
2024/02/26 16:20 LIRF 261620Z 13018KT 6000 -RA SCT015 BKN025 11/08 Q1005 NOSIG
Lätt regn, Övervägande molnigt
Lätt regn
Övervägande molnigt
  Visa detaljer för Rome Airport (Fiumicino - Leonardo da Vinci)
Avstånd från stationen: SO 2679kmLTAI - Antalya
Uppdaterad: 2024-02-26 17:20
 Vind från NV
Vind: NV 9 km/h
Temperatur: 12°C
Daggpunkt: 12°C
Luftfuktighet: 100%
Barometer: 1015 hPa
Summering: Lätt regn, Showers
Moln: Övervägande molnigt
Sikt: 10 km
Molninformation: Några få moln 610 m
Övervägande molnigt 762 m
2024/02/26 16:20 LTAI 261620Z 31005KT 9999 -SHRA FEW020CB BKN025 12/12 Q1015 NOSIG
Lätt regn, Showers, Övervägande molnigt
Lätt regn
Showers
Övervägande molnigt
  Visa detaljer för Antalya
Avstånd från stationen: VSV 6074kmKJFK - New Your (JFK)
Uppdaterad: 2024-02-26 16:51
 Vind från SSV
Vind: SSV 19 km/h
Temperatur: 5°C
Vindavkylning: 1°C
Daggpunkt: 1°C
Luftfuktighet: 76%
Barometer: 1018.3 hPa
Moln: Övervägande molnigt
Sikt: 16 km
Molninformation: Delvis molnigt 2134 m
Övervägande molnigt 3353 m
Övervägande molnigt 7010 m
2024/02/26 15:51 KJFK 261551Z 21010KT 10SM SCT070 BKN110 BKN230 05/01 A3007 RMK AO2 SLP183 T00500006
Övervägande molnigt
Övervägande molnigt
  Visa detaljer för New Your (JFK)
Avstånd från stationen: VSV 8848kmKLAX - Los Angeles International Airport
Uppdaterad: 2024-02-26 16:53
 Vind från O
Vind: O 11 km/h
Temperatur: 13°C
Daggpunkt: 11°C
Luftfuktighet: 88%
Barometer: 1016.6 hPa
Moln: Genommulet
Sikt: 11 km
Molninformation: Några få moln 274 m
Övervägande molnigt 3658 m
Genommulet 4877 m
2024/02/26 15:53 KLAX 261553Z 10006KT 7SM FEW009 BKN120 OVC160 13/11 A3002 RMK AO2 SLP166 T01280111 $
Genommulet
Genommulet
  Visa detaljer för Los Angeles International Airport
Avstånd från stationen: SO 4968kmOMDB - Dubai International Airport
Uppdaterad: 2024-02-26 17:00
 Vind från VSV
Vind: VSV 15 km/h
Temperatur: 21°C
Daggpunkt: 14°C
Luftfuktighet: 64%
Barometer: 1011 hPa
Moln: Delvis molnigt
Sikt: 10 km
Molninformation: Delvis molnigt 914 m
2024/02/26 16:00 OMDB 261600Z 25008KT 220V290 9999 SCT030 21/14 Q1011 NOSIG
Delvis molnigt
Delvis molnigt
  Visa detaljer för Dubai International Airport
Avstånd från stationen: OSO 8570kmRJTT - Tokyo International Airport
Uppdaterad: 2024-02-26 17:30
 Vind från VNV
Vind: VNV 31 km/h
Temperatur: 6°C
Vindavkylning: 1°C
Daggpunkt: -6°C
Luftfuktighet: 42%
Barometer: 1013 hPa
Summering: Klart
Sikt: mer än 10 km
2024/02/26 16:30 RJTT 261630Z 30017KT CAVOK 06/M06 Q1013 NOSIG RMK A2994
Klart
Klart
  Visa detaljer för Tokyo International Airport
Avstånd från stationen: OSO 7125kmZBAA - Peking (Beijing Capital)
Uppdaterad: 2024-02-26 17:30
 Vind från SO
Vind: SO 7 km/h
Temperatur: 0°C
Vindavkylning: -2°C
Daggpunkt: -9°C
Luftfuktighet: 51%
Barometer: 1032 hPa
Summering: Klart
Sikt: mer än 10 km
2024/02/26 16:30 ZBAA 261630Z 14002MPS CAVOK 00/M09 Q1032 NOSIG
Klart
Klart
  Visa detaljer för Peking (Beijing Capital)
VÄDER KURIOSA -  Weather TermsSevere Local Storms - These are short-fused, small scale hazardous weather or hydrologic events produced by thunderstorms, including large hail, damaging winds, tornadoes, and flash floods.